createdAt,value
2023-05-25T00:01:38.180Z,23.60
2023-05-25T00:04:40.842Z,23.40
2023-05-25T00:07:43.949Z,23.40
2023-05-25T00:10:45.543Z,23.50
2023-05-25T00:13:47.112Z,23.40
2023-05-25T00:16:48.656Z,23.20
2023-05-25T00:19:51.001Z,23.40
2023-05-25T00:22:55.314Z,23.40
2023-05-25T00:25:56.817Z,23.30
2023-05-25T00:28:59.608Z,23.50
2023-05-25T00:32:01.110Z,23.50
2023-05-25T00:35:03.338Z,23.30
2023-05-25T00:38:04.954Z,23.40
2023-05-25T00:41:06.646Z,23.40
2023-05-25T00:44:10.042Z,23.40
2023-05-25T00:47:12.130Z,23.40
2023-05-25T00:50:16.448Z,23.10
2023-05-25T00:53:17.921Z,23.30
2023-05-25T00:56:23.719Z,23.40
2023-05-25T00:59:34.970Z,23.20
2023-05-25T01:02:40.382Z,22.80
2023-05-25T01:05:46.731Z,23.10
2023-05-25T01:08:51.866Z,23.20
2023-05-25T01:11:56.159Z,23.40
2023-05-25T01:14:59.750Z,23.30
2023-05-25T01:18:01.479Z,23.40
2023-05-25T01:21:12.443Z,23.20
2023-05-25T01:24:21.715Z,23.40
2023-05-25T01:27:31.676Z,23.40
2023-05-25T01:30:37.061Z,23.20
2023-05-25T01:33:38.884Z,23.20
2023-05-25T01:36:41.293Z,23.20
2023-05-25T01:39:42.998Z,23.20
2023-05-25T01:42:44.734Z,23.10
2023-05-25T01:45:47.005Z,23.20
2023-05-25T01:48:54.173Z,23.10
2023-05-25T01:52:03.677Z,23.20
2023-05-25T01:55:10.280Z,23.10
2023-05-25T01:58:15.658Z,22.90
2023-05-25T02:01:18.662Z,23.10
2023-05-25T02:04:21.907Z,22.70
2023-05-25T02:07:23.943Z,23.10
2023-05-25T02:10:26.479Z,23.10
2023-05-25T02:13:28.051Z,22.80
2023-05-25T02:16:31.876Z,23.10
2023-05-25T02:19:38.236Z,23.00
2023-05-25T02:22:40.192Z,23.10
2023-05-25T02:25:42.178Z,23.10
2023-05-25T02:28:43.797Z,23.00
2023-05-25T02:31:45.173Z,23.00
2023-05-25T02:34:48.347Z,23.00
2023-05-25T02:37:51.340Z,22.90
2023-05-25T02:40:52.960Z,23.00
2023-05-25T02:43:55.833Z,23.00
2023-05-25T02:46:57.554Z,22.80
2023-05-25T02:49:59.051Z,22.80
2023-05-25T02:53:01.301Z,22.90
2023-05-25T02:56:04.149Z,23.00
2023-05-25T02:59:08.013Z,23.00
2023-05-25T03:02:09.440Z,23.00
2023-05-25T03:05:11.065Z,23.00
2023-05-25T03:08:13.968Z,23.00
2023-05-25T03:11:15.537Z,23.10
2023-05-25T03:14:18.299Z,22.90
2023-05-25T03:17:30.041Z,22.90
2023-05-25T03:20:35.083Z,23.00
2023-05-25T03:23:37.458Z,22.80
2023-05-25T03:26:42.547Z,22.80
2023-05-25T03:29:44.006Z,22.60
2023-05-25T03:32:45.486Z,22.80
2023-05-25T03:35:47.241Z,22.90
2023-05-25T03:38:51.955Z,22.90
2023-05-25T03:41:54.600Z,22.90
2023-05-25T03:44:56.268Z,22.90
2023-05-25T03:47:58.474Z,22.50
2023-05-25T03:51:00.273Z,22.90
2023-05-25T03:54:02.671Z,22.60
2023-05-25T03:57:05.909Z,22.80
2023-05-25T04:00:09.295Z,22.80
2023-05-25T04:03:19.717Z,22.60
2023-05-25T04:06:24.757Z,22.70
2023-05-25T04:09:26.806Z,22.70
2023-05-25T04:12:28.434Z,22.80
2023-05-25T04:15:30.168Z,22.80
2023-05-25T04:18:37.860Z,22.50
2023-05-25T04:21:41.414Z,22.60
2023-05-25T04:24:43.968Z,22.80
2023-05-25T04:27:46.072Z,22.40
2023-05-25T04:30:48.821Z,22.70
2023-05-25T04:34:01.932Z,22.30
2023-05-25T04:37:08.031Z,22.70
2023-05-25T04:40:16.164Z,22.90
2023-05-25T04:43:19.559Z,22.60
2023-05-25T04:46:22.781Z,22.40
2023-05-25T04:49:24.913Z,22.90
2023-05-25T04:52:26.341Z,22.40
2023-05-25T04:55:31.218Z,22.60
2023-05-25T04:58:35.709Z,22.70
2023-05-25T05:01:39.975Z,22.70
2023-05-25T05:04:42.516Z,22.70
2023-05-25T05:07:44.281Z,22.60
2023-05-25T05:10:46.378Z,22.60
2023-05-25T05:13:47.832Z,22.80
2023-05-25T05:16:49.377Z,22.70
2023-05-25T05:19:50.953Z,22.70
2023-05-25T05:22:53.546Z,22.70
2023-05-25T05:25:58.045Z,22.70
2023-05-25T05:28:59.499Z,22.70
2023-05-25T05:32:02.696Z,22.90
2023-05-25T05:35:05.407Z,22.30
2023-05-25T05:38:13.446Z,22.70
2023-05-25T05:41:15.535Z,22.70
2023-05-25T05:44:25.214Z,22.70
2023-05-25T05:47:30.255Z,22.80
2023-05-25T05:50:31.777Z,22.70
2023-05-25T05:53:34.565Z,22.80
2023-05-25T05:56:37.359Z,22.80
2023-05-25T05:59:39.345Z,22.70
2023-05-25T06:02:42.210Z,22.70
2023-05-25T06:05:47.066Z,22.70
2023-05-25T06:08:48.802Z,22.80
2023-05-25T06:11:50.832Z,22.60
2023-05-25T06:14:55.857Z,22.70
2023-05-25T06:17:59.427Z,22.60
2023-05-25T06:21:01.210Z,22.60
2023-05-25T06:24:02.823Z,23.40
2023-05-25T06:27:05.110Z,23.20
2023-05-25T06:30:07.776Z,22.70
2023-05-25T06:33:10.371Z,22.70
2023-05-25T06:36:16.435Z,22.70
2023-05-25T06:39:19.456Z,22.60
2023-05-25T06:42:22.157Z,22.80
2023-05-25T06:45:28.473Z,22.50
2023-05-25T06:48:32.790Z,22.50
2023-05-25T06:51:34.463Z,22.80
2023-05-25T06:54:35.941Z,22.80
2023-05-25T06:57:40.212Z,22.70
2023-05-25T07:00:41.624Z,22.70
2023-05-25T07:03:45.642Z,22.70
2023-05-25T07:06:47.500Z,22.80
2023-05-25T07:09:48.990Z,23.10
2023-05-25T07:12:51.630Z,22.50
2023-05-25T07:15:53.075Z,22.90
2023-05-25T07:18:54.889Z,22.90
2023-05-25T07:21:56.318Z,23.00
2023-05-25T07:24:59.845Z,22.80
2023-05-25T07:28:01.897Z,22.60
2023-05-25T07:31:04.050Z,22.80
2023-05-25T07:34:05.462Z,22.90
2023-05-25T07:37:06.762Z,23.00
2023-05-25T07:40:09.899Z,22.80
2023-05-25T07:43:12.010Z,23.00
2023-05-25T07:46:13.508Z,22.90
2023-05-25T07:49:15.533Z,23.00
2023-05-25T07:52:18.124Z,23.00
2023-05-25T07:55:19.667Z,23.00
2023-05-25T07:58:21.696Z,23.10
2023-05-25T08:01:27.041Z,23.10
2023-05-25T08:04:31.174Z,23.20
2023-05-25T08:07:32.731Z,23.10
2023-05-25T08:10:34.299Z,23.00
2023-05-25T08:13:36.440Z,23.10
2023-05-25T08:16:37.899Z,23.20
2023-05-25T08:19:40.453Z,23.10
2023-05-25T08:22:43.239Z,23.10
2023-05-25T08:25:48.133Z,23.10
2023-05-25T08:28:50.219Z,23.10
2023-05-25T08:31:51.921Z,23.20
2023-05-25T08:34:53.413Z,23.50
2023-05-25T08:37:55.082Z,23.30
2023-05-25T08:41:03.453Z,23.50
2023-05-25T08:44:05.661Z,23.40
2023-05-25T08:47:12.594Z,23.10
2023-05-25T08:50:17.085Z,23.50
2023-05-25T08:53:21.020Z,23.30
2023-05-25T08:56:27.992Z,23.20
2023-05-25T08:59:37.550Z,23.10
2023-05-25T09:02:46.260Z,23.80
2023-05-25T09:05:48.433Z,23.40
2023-05-25T09:08:52.305Z,23.40
2023-05-25T09:11:55.064Z,23.30
2023-05-25T09:14:58.129Z,23.50
2023-05-25T09:17:59.655Z,22.90
2023-05-25T09:21:01.771Z,23.40
2023-05-25T09:24:03.830Z,23.30
2023-05-25T09:27:05.782Z,23.30
2023-05-25T09:30:08.696Z,23.50
2023-05-25T09:33:11.304Z,23.40
2023-05-25T09:36:16.071Z,23.50
2023-05-25T09:39:18.024Z,23.40
2023-05-25T09:42:20.669Z,24.30
2023-05-25T09:45:24.979Z,23.40
2023-05-25T09:48:28.448Z,23.50
2023-05-25T09:51:32.712Z,24.90
2023-05-25T09:54:35.326Z,23.50
2023-05-25T09:57:39.227Z,23.60
2023-05-25T10:00:41.292Z,23.50
2023-05-25T10:03:59.449Z,23.40
2023-05-25T10:07:07.200Z,23.60
2023-05-25T10:10:12.373Z,23.70
2023-05-25T10:13:21.688Z,23.60
2023-05-25T10:16:28.513Z,23.60
2023-05-25T10:19:36.556Z,23.60
2023-05-25T10:22:46.514Z,23.50
2023-05-25T10:25:53.671Z,23.80
2023-05-25T10:29:00.542Z,23.70
2023-05-25T10:32:04.175Z,23.70
2023-05-25T10:35:07.814Z,23.70
2023-05-25T10:38:11.516Z,23.80
2023-05-25T10:41:15.398Z,23.70
2023-05-25T10:44:17.276Z,23.80
2023-05-25T10:47:19.914Z,23.70
2023-05-25T10:50:25.402Z,23.80
2023-05-25T10:53:27.253Z,23.80
2023-05-25T10:56:28.864Z,23.90
2023-05-25T10:59:30.619Z,23.90
2023-05-25T11:02:48.567Z,23.80
2023-05-25T11:05:53.010Z,23.80
2023-05-25T11:08:55.780Z,23.80
2023-05-25T11:12:02.648Z,23.90
2023-05-25T11:15:20.381Z,24.00
2023-05-25T11:18:22.429Z,23.90
2023-05-25T11:21:44.370Z,23.80
2023-05-25T11:24:51.152Z,24.00
2023-05-25T11:27:55.277Z,24.10
2023-05-25T11:30:57.394Z,24.00
2023-05-25T11:34:02.464Z,24.00
2023-05-25T11:37:04.300Z,24.00
2023-05-25T11:40:07.394Z,24.00
2023-05-25T11:43:10.810Z,24.00
2023-05-25T11:46:14.013Z,24.10
2023-05-25T11:49:20.768Z,24.50
2023-05-25T11:52:22.668Z,24.10
2023-05-25T11:55:24.386Z,24.10
2023-05-25T11:58:32.235Z,24.10
2023-05-25T12:01:36.064Z,24.20
2023-05-25T12:04:39.743Z,24.20
2023-05-25T12:07:43.192Z,24.20
2023-05-25T12:10:51.881Z,24.30
2023-05-25T12:13:55.199Z,24.40
2023-05-25T12:16:57.207Z,24.20
2023-05-25T12:19:59.519Z,24.40
2023-05-25T12:23:01.535Z,24.40
2023-05-25T12:26:09.848Z,24.50
2023-05-25T12:29:11.394Z,24.90
2023-05-25T12:32:13.197Z,24.70
2023-05-25T12:35:15.211Z,24.50
2023-05-25T12:38:18.021Z,24.50
2023-05-25T12:41:19.480Z,23.90
2023-05-25T12:44:23.937Z,24.60
2023-05-25T12:47:27.831Z,24.50
2023-05-25T12:50:30.151Z,24.60
2023-05-25T12:53:32.850Z,24.70
2023-05-25T12:56:52.652Z,24.70
2023-05-25T12:59:56.145Z,24.60
2023-05-25T13:02:58.752Z,24.60
2023-05-25T13:06:01.629Z,24.70
2023-05-25T13:09:03.979Z,24.50
2023-05-25T13:12:06.199Z,24.70
2023-05-25T13:15:11.218Z,24.70
2023-05-25T13:18:12.716Z,24.60
2023-05-25T13:21:14.906Z,24.60
2023-05-25T13:24:16.730Z,24.70
2023-05-25T13:27:25.309Z,24.50
2023-05-25T13:30:27.005Z,24.50
2023-05-25T13:33:29.933Z,24.50
2023-05-25T13:36:36.385Z,24.50
2023-05-25T13:39:37.862Z,24.50
2023-05-25T13:42:39.284Z,24.50
2023-05-25T13:45:40.807Z,24.50
2023-05-25T13:48:46.543Z,24.30
2023-05-25T13:51:50.786Z,24.50
2023-05-25T13:54:52.247Z,24.30
2023-05-25T13:57:53.907Z,24.40
2023-05-25T14:00:55.811Z,24.50
2023-05-25T14:03:58.979Z,23.30
2023-05-25T14:07:01.856Z,24.40
2023-05-25T14:10:04.469Z,24.30
2023-05-25T14:13:08.205Z,24.50
2023-05-25T14:16:09.879Z,24.40
2023-05-25T14:19:11.855Z,24.30
2023-05-25T14:22:14.712Z,24.30
2023-05-25T14:25:16.314Z,24.40
2023-05-25T14:28:18.160Z,24.50
2023-05-25T14:31:20.027Z,24.50
2023-05-25T14:34:21.547Z,24.50
2023-05-25T14:37:23.688Z,24.50
2023-05-25T14:40:25.232Z,24.50
2023-05-25T14:43:26.720Z,24.30
2023-05-25T14:46:28.271Z,24.40
2023-05-25T14:49:29.745Z,24.10
2023-05-25T14:52:31.820Z,24.40
2023-05-25T14:55:33.248Z,24.30
2023-05-25T14:58:34.951Z,24.20
2023-05-25T15:01:36.636Z,24.20
2023-05-25T15:04:38.132Z,24.50
2023-05-25T15:07:40.702Z,24.50
2023-05-25T15:10:42.273Z,24.40
2023-05-25T15:13:46.558Z,24.50
2023-05-25T15:16:48.071Z,24.40
2023-05-25T15:19:51.497Z,24.50
2023-05-25T15:22:53.561Z,24.20
2023-05-25T15:25:56.381Z,24.60
2023-05-25T15:28:57.984Z,24.40
2023-05-25T15:31:59.519Z,24.40
2023-05-25T15:35:01.422Z,24.40
2023-05-25T15:38:03.632Z,24.40
2023-05-25T15:41:10.569Z,24.30
2023-05-25T15:44:12.038Z,24.40
2023-05-25T15:47:13.516Z,24.50
2023-05-25T15:50:15.539Z,23.20
2023-05-25T15:53:17.547Z,24.50
2023-05-25T15:56:21.812Z,24.50
2023-05-25T15:59:25.958Z,24.50
2023-05-25T16:02:27.660Z,24.50
2023-05-25T16:05:29.432Z,24.50
2023-05-25T16:08:31.411Z,24.40
2023-05-25T16:11:33.312Z,24.50
2023-05-25T16:14:34.837Z,24.40
2023-05-25T16:17:36.388Z,24.60
2023-05-25T16:20:37.871Z,24.40
2023-05-25T16:23:40.197Z,24.50
2023-05-25T16:26:41.576Z,24.50
2023-05-25T16:29:43.439Z,24.60
2023-05-25T16:32:47.092Z,24.50
2023-05-25T16:35:48.718Z,24.50
2023-05-25T16:38:50.732Z,24.60
2023-05-25T16:41:52.262Z,24.50
2023-05-25T16:44:53.691Z,24.60
2023-05-25T16:47:55.192Z,24.50
2023-05-25T16:50:56.668Z,24.50
2023-05-25T16:53:58.755Z,24.50
2023-05-25T16:57:01.364Z,24.60
2023-05-25T17:00:03.483Z,24.60
2023-05-25T17:03:05.977Z,24.40
2023-05-25T17:06:07.870Z,24.30
2023-05-25T17:09:10.997Z,24.70
2023-05-25T17:12:12.449Z,24.70
2023-05-25T17:15:16.705Z,24.60
2023-05-25T17:18:18.192Z,24.70
2023-05-25T17:21:19.728Z,24.60
2023-05-25T17:24:21.738Z,24.60
2023-05-25T17:27:23.154Z,24.70
2023-05-25T17:30:24.821Z,24.70
2023-05-25T17:33:26.254Z,24.60
2023-05-25T17:36:27.731Z,24.20
2023-05-25T17:39:29.956Z,24.70
2023-05-25T17:42:31.598Z,24.70
2023-05-25T17:45:35.055Z,24.80
2023-05-25T17:48:39.631Z,23.70
2023-05-25T17:51:41.053Z,24.70
2023-05-25T17:54:43.253Z,24.90
2023-05-25T17:57:44.791Z,24.70
2023-05-25T18:00:49.254Z,24.80
2023-05-25T18:03:52.492Z,24.80
2023-05-25T18:06:53.950Z,24.90
2023-05-25T18:09:58.957Z,24.80
2023-05-25T18:13:00.358Z,24.80
2023-05-25T18:16:01.766Z,24.80
2023-05-25T18:19:03.249Z,24.70
2023-05-25T18:22:04.876Z,24.80
2023-05-25T18:25:07.451Z,24.70
2023-05-25T18:28:08.859Z,24.80
2023-05-25T18:31:10.650Z,24.90
2023-05-25T18:34:14.845Z,24.80
2023-05-25T18:37:16.251Z,24.90
2023-05-25T18:40:19.730Z,24.90
2023-05-25T18:43:21.127Z,24.80
2023-05-25T18:46:23.488Z,24.80
2023-05-25T18:49:25.445Z,24.90
2023-05-25T18:52:26.857Z,25.20
2023-05-25T18:55:28.943Z,24.90
2023-05-25T18:58:30.383Z,24.90
2023-05-25T19:01:32.060Z,24.90
2023-05-25T19:04:33.595Z,25.20
2023-05-25T19:07:50.724Z,24.90
2023-05-25T19:11:00.111Z,24.90
2023-05-25T19:14:02.611Z,24.90
2023-05-25T19:17:04.201Z,24.90
2023-05-25T19:20:06.673Z,24.80
2023-05-25T19:23:08.091Z,24.80
2023-05-25T19:26:10.153Z,24.90
2023-05-25T19:29:11.752Z,25.10
2023-05-25T19:32:17.379Z,24.80
2023-05-25T19:35:18.996Z,24.90
2023-05-25T19:38:20.743Z,24.90
2023-05-25T19:41:23.364Z,24.80
2023-05-25T19:44:25.169Z,24.80
2023-05-25T19:47:26.644Z,24.90
2023-05-25T19:50:29.875Z,24.80
2023-05-25T19:53:31.378Z,24.80
2023-05-25T19:56:34.129Z,24.80
2023-05-25T19:59:36.697Z,24.70
2023-05-25T20:02:38.532Z,24.70
2023-05-25T20:05:40.132Z,24.70
2023-05-25T20:08:41.552Z,24.70
2023-05-25T20:11:43.576Z,24.70
2023-05-25T20:14:45.224Z,24.60
2023-05-25T20:17:46.628Z,24.70
2023-05-25T20:20:48.446Z,24.60
2023-05-25T20:23:49.972Z,24.70
2023-05-25T20:26:55.685Z,24.50
2023-05-25T20:29:57.153Z,24.50
2023-05-25T20:32:59.324Z,24.50
2023-05-25T20:36:00.842Z,24.50
2023-05-25T20:39:02.395Z,24.50
2023-05-25T20:42:05.916Z,24.50
2023-05-25T20:45:08.175Z,24.30
2023-05-25T20:48:09.615Z,24.40
2023-05-25T20:51:11.000Z,24.30
2023-05-25T20:54:12.468Z,24.10
2023-05-25T20:57:16.006Z,24.30
2023-05-25T21:00:18.139Z,24.40
2023-05-25T21:03:19.960Z,24.30
2023-05-25T21:06:25.690Z,24.30
2023-05-25T21:09:27.073Z,24.30
2023-05-25T21:12:29.114Z,24.30
2023-05-25T21:15:30.862Z,24.20
2023-05-25T21:18:40.054Z,24.20
2023-05-25T21:21:44.510Z,24.20
2023-05-25T21:24:45.987Z,24.20
2023-05-25T21:27:48.101Z,24.20
2023-05-25T21:30:49.834Z,24.00
2023-05-25T21:33:52.474Z,24.20
2023-05-25T21:36:53.885Z,24.00
2023-05-25T21:39:55.320Z,24.00
2023-05-25T21:42:57.675Z,24.20
2023-05-25T21:45:59.107Z,24.10
2023-05-25T21:49:00.712Z,24.80
2023-05-25T21:52:02.151Z,24.00
2023-05-25T21:55:03.972Z,24.00
2023-05-25T21:58:05.952Z,24.10
2023-05-25T22:01:07.571Z,23.80
2023-05-25T22:04:09.335Z,24.00
2023-05-25T22:07:10.835Z,24.00
2023-05-25T22:10:12.922Z,24.00
2023-05-25T22:13:15.056Z,23.80
2023-05-25T22:16:16.699Z,23.90
2023-05-25T22:19:18.198Z,24.00
2023-05-25T22:22:20.519Z,23.90
2023-05-25T22:25:22.268Z,23.90
2023-05-25T22:28:24.274Z,24.00
2023-05-25T22:31:25.990Z,23.80
2023-05-25T22:34:30.326Z,23.90
2023-05-25T22:37:31.757Z,23.60
2023-05-25T22:40:33.228Z,23.80
2023-05-25T22:43:35.445Z,23.90
2023-05-25T22:46:36.823Z,23.80
2023-05-25T22:49:40.948Z,24.00
2023-05-25T22:52:44.650Z,23.70
2023-05-25T22:55:47.390Z,23.80
2023-05-25T22:58:49.681Z,23.80
2023-05-25T23:01:54.182Z,23.80
2023-05-25T23:04:55.748Z,23.70
2023-05-25T23:07:58.516Z,23.70
2023-05-25T23:11:00.019Z,23.70
2023-05-25T23:14:07.070Z,23.80
2023-05-25T23:17:11.393Z,23.90
2023-05-25T23:20:13.132Z,23.60
2023-05-25T23:23:14.928Z,23.20
2023-05-25T23:26:18.880Z,23.70
2023-05-25T23:29:20.842Z,23.60
2023-05-25T23:32:22.968Z,23.60
2023-05-25T23:35:24.510Z,23.60
2023-05-25T23:38:27.462Z,23.80
2023-05-25T23:41:28.936Z,23.80
2023-05-25T23:44:31.001Z,23.60
2023-05-25T23:47:32.495Z,23.60
2023-05-25T23:50:35.071Z,23.60
2023-05-25T23:53:37.634Z,23.70
2023-05-25T23:56:39.053Z,23.40
2023-05-25T23:59:40.923Z,23.50
